sensor_id;sensor_type;location;lat;lon;timestamp;P1;durP1;ratioP1;P2;durP2;ratioP2
71464;SDS011;59274;49.874;9.154;2023-07-29T00:00:45;4.90;;;2.83;;
71464;SDS011;59274;49.874;9.154;2023-07-29T00:03:11;6.00;;;2.67;;
71464;SDS011;59274;49.874;9.154;2023-07-29T00:05:36;5.07;;;2.50;;
71464;SDS011;59274;49.874;9.154;2023-07-29T00:08:02;7.28;;;2.78;;
71464;SDS011;59274;49.874;9.154;2023-07-29T00:10:28;6.57;;;2.85;;
71464;SDS011;59274;49.874;9.154;2023-07-29T00:12:54;5.38;;;3.00;;
71464;SDS011;59274;49.874;9.154;2023-07-29T00:15:19;5.70;;;2.90;;
71464;SDS011;59274;49.874;9.154;2023-07-29T00:17:45;6.75;;;3.00;;
71464;SDS011;59274;49.874;9.154;2023-07-29T00:20:10;7.90;;;3.40;;
71464;SDS011;59274;49.874;9.154;2023-07-29T00:22:36;7.17;;;3.27;;
71464;SDS011;59274;49.874;9.154;2023-07-29T00:25:01;6.47;;;3.53;;
71464;SDS011;59274;49.874;9.154;2023-07-29T00:27:27;5.95;;;2.80;;
71464;SDS011;59274;49.874;9.154;2023-07-29T00:29:52;6.67;;;3.20;;
71464;SDS011;59274;49.874;9.154;2023-07-29T00:32:18;7.77;;;3.30;;
71464;SDS011;59274;49.874;9.154;2023-07-29T00:34:43;6.88;;;3.25;;
71464;SDS011;59274;49.874;9.154;2023-07-29T00:37:09;6.97;;;3.13;;
71464;SDS011;59274;49.874;9.154;2023-07-29T00:39:35;7.15;;;3.70;;
71464;SDS011;59274;49.874;9.154;2023-07-29T00:42:02;6.53;;;2.60;;
71464;SDS011;59274;49.874;9.154;2023-07-29T00:44:28;5.50;;;2.55;;
71464;SDS011;59274;49.874;9.154;2023-07-29T00:46:53;5.87;;;2.57;;
71464;SDS011;59274;49.874;9.154;2023-07-29T00:49:19;6.18;;;2.80;;
71464;SDS011;59274;49.874;9.154;2023-07-29T00:51:45;5.60;;;2.60;;
71464;SDS011;59274;49.874;9.154;2023-07-29T00:54:11;6.07;;;3.10;;
71464;SDS011;59274;49.874;9.154;2023-07-29T00:56:37;7.78;;;2.88;;
71464;SDS011;59274;49.874;9.154;2023-07-29T00:59:03;5.80;;;2.90;;
71464;SDS011;59274;49.874;9.154;2023-07-29T01:01:29;5.75;;;2.90;;
71464;SDS011;59274;49.874;9.154;2023-07-29T01:03:55;6.53;;;3.05;;
71464;SDS011;59274;49.874;9.154;2023-07-29T01:06:29;5.73;;;2.73;;
71464;SDS011;59274;49.874;9.154;2023-07-29T01:11:58;5.68;;;2.72;;
71464;SDS011;59274;49.874;9.154;2023-07-29T01:14:47;6.57;;;2.80;;
71464;SDS011;59274;49.874;9.154;2023-07-29T01:17:25;5.00;;;2.50;;
71464;SDS011;59274;49.874;9.154;2023-07-29T01:20:00;8.32;;;2.90;;
71464;SDS011;59274;49.874;9.154;2023-07-29T01:22:28;6.10;;;2.95;;
71464;SDS011;59274;49.874;9.154;2023-07-29T01:24:56;5.30;;;2.75;;
71464;SDS011;59274;49.874;9.154;2023-07-29T01:27:22;6.53;;;2.67;;
71464;SDS011;59274;49.874;9.154;2023-07-29T01:29:48;6.73;;;3.03;;
71464;SDS011;59274;49.874;9.154;2023-07-29T01:32:14;6.27;;;3.10;;
71464;SDS011;59274;49.874;9.154;2023-07-29T01:34:47;6.80;;;3.15;;
71464;SDS011;59274;49.874;9.154;2023-07-29T01:37:19;8.82;;;3.28;;
71464;SDS011;59274;49.874;9.154;2023-07-29T01:39:49;6.15;;;3.00;;
71464;SDS011;59274;49.874;9.154;2023-07-29T01:42:16;6.57;;;2.70;;
71464;SDS011;59274;49.874;9.154;2023-07-29T01:44:42;5.72;;;2.83;;
71464;SDS011;59274;49.874;9.154;2023-07-29T01:47:08;6.40;;;3.03;;
71464;SDS011;59274;49.874;9.154;2023-07-29T01:49:33;7.07;;;2.70;;
71464;SDS011;59274;49.874;9.154;2023-07-29T01:51:59;5.73;;;2.50;;
71464;SDS011;59274;49.874;9.154;2023-07-29T01:54:24;7.72;;;3.17;;
71464;SDS011;59274;49.874;9.154;2023-07-29T01:56:50;6.20;;;2.70;;
71464;SDS011;59274;49.874;9.154;2023-07-29T01:59:16;6.10;;;3.17;;
71464;SDS011;59274;49.874;9.154;2023-07-29T02:01:42;7.30;;;3.40;;
71464;SDS011;59274;49.874;9.154;2023-07-29T02:04:08;5.53;;;2.90;;
71464;SDS011;59274;49.874;9.154;2023-07-29T02:06:33;5.27;;;2.90;;
71464;SDS011;59274;49.874;9.154;2023-07-29T02:08:59;7.37;;;3.27;;
71464;SDS011;59274;49.874;9.154;2023-07-29T02:11:24;6.75;;;3.33;;
71464;SDS011;59274;49.874;9.154;2023-07-29T02:13:53;6.47;;;3.10;;
71464;SDS011;59274;49.874;9.154;2023-07-29T02:16:19;5.22;;;2.92;;
71464;SDS011;59274;49.874;9.154;2023-07-29T02:18:45;5.60;;;3.08;;
71464;SDS011;59274;49.874;9.154;2023-07-29T02:21:14;7.88;;;3.03;;
71464;SDS011;59274;49.874;9.154;2023-07-29T02:23:46;5.63;;;2.97;;
71464;SDS011;59274;49.874;9.154;2023-07-29T02:26:11;9.10;;;3.53;;
71464;SDS011;59274;49.874;9.154;2023-07-29T02:28:36;6.57;;;3.03;;
71464;SDS011;59274;49.874;9.154;2023-07-29T02:33:39;7.22;;;3.22;;
71464;SDS011;59274;49.874;9.154;2023-07-29T02:36:05;8.33;;;3.40;;
71464;SDS011;59274;49.874;9.154;2023-07-29T02:38:30;7.00;;;3.87;;
71464;SDS011;59274;49.874;9.154;2023-07-29T02:40:56;7.03;;;3.47;;
71464;SDS011;59274;49.874;9.154;2023-07-29T02:43:21;7.53;;;4.13;;
71464;SDS011;59274;49.874;9.154;2023-07-29T02:45:46;8.00;;;4.40;;
71464;SDS011;59274;49.874;9.154;2023-07-29T02:48:12;13.00;;;4.73;;
71464;SDS011;59274;49.874;9.154;2023-07-29T02:50:37;10.48;;;4.60;;
71464;SDS011;59274;49.874;9.154;2023-07-29T02:53:02;7.87;;;4.13;;
71464;SDS011;59274;49.874;9.154;2023-07-29T02:55:28;9.57;;;4.60;;
71464;SDS011;59274;49.874;9.154;2023-07-29T02:57:53;7.17;;;3.63;;
71464;SDS011;59274;49.874;9.154;2023-07-29T03:00:19;10.23;;;3.97;;
71464;SDS011;59274;49.874;9.154;2023-07-29T03:02:44;7.47;;;4.00;;
71464;SDS011;59274;49.874;9.154;2023-07-29T03:05:10;10.50;;;4.30;;
71464;SDS011;59274;49.874;9.154;2023-07-29T03:07:35;9.17;;;4.30;;
71464;SDS011;59274;49.874;9.154;2023-07-29T03:10:00;10.07;;;4.13;;
71464;SDS011;59274;49.874;9.154;2023-07-29T03:12:26;9.60;;;4.07;;
71464;SDS011;59274;49.874;9.154;2023-07-29T03:14:52;7.70;;;3.90;;
71464;SDS011;59274;49.874;9.154;2023-07-29T03:17:17;10.60;;;3.97;;
71464;SDS011;59274;49.874;9.154;2023-07-29T03:19:43;8.02;;;3.40;;
71464;SDS011;59274;49.874;9.154;2023-07-29T03:22:08;8.87;;;4.13;;
71464;SDS011;59274;49.874;9.154;2023-07-29T03:24:33;7.20;;;3.70;;
71464;SDS011;59274;49.874;9.154;2023-07-29T03:26:59;8.63;;;3.30;;
71464;SDS011;59274;49.874;9.154;2023-07-29T03:29:24;7.57;;;3.67;;
71464;SDS011;59274;49.874;9.154;2023-07-29T03:31:50;7.32;;;3.55;;
71464;SDS011;59274;49.874;9.154;2023-07-29T03:34:15;6.38;;;3.45;;
71464;SDS011;59274;49.874;9.154;2023-07-29T03:36:40;8.27;;;3.67;;
71464;SDS011;59274;49.874;9.154;2023-07-29T03:39:06;8.70;;;3.97;;
71464;SDS011;59274;49.874;9.154;2023-07-29T03:41:32;7.43;;;3.33;;
71464;SDS011;59274;49.874;9.154;2023-07-29T03:43:58;6.20;;;3.03;;
71464;SDS011;59274;49.874;9.154;2023-07-29T03:46:24;5.70;;;3.20;;
71464;SDS011;59274;49.874;9.154;2023-07-29T03:48:50;6.15;;;3.22;;
71464;SDS011;59274;49.874;9.154;2023-07-29T03:51:16;6.60;;;3.30;;
71464;SDS011;59274;49.874;9.154;2023-07-29T03:53:41;8.10;;;3.42;;
71464;SDS011;59274;49.874;9.154;2023-07-29T03:56:07;8.17;;;3.73;;
71464;SDS011;59274;49.874;9.154;2023-07-29T03:58:33;8.43;;;4.20;;
71464;SDS011;59274;49.874;9.154;2023-07-29T04:00:58;8.40;;;3.90;;
71464;SDS011;59274;49.874;9.154;2023-07-29T04:03:24;8.00;;;4.10;;
71464;SDS011;59274;49.874;9.154;2023-07-29T04:05:49;7.73;;;3.40;;
71464;SDS011;59274;49.874;9.154;2023-07-29T04:08:14;6.85;;;3.38;;
71464;SDS011;59274;49.874;9.154;2023-07-29T04:10:40;6.87;;;3.50;;
71464;SDS011;59274;49.874;9.154;2023-07-29T04:13:05;7.57;;;3.40;;
71464;SDS011;59274;49.874;9.154;2023-07-29T04:15:31;6.45;;;3.00;;
71464;SDS011;59274;49.874;9.154;2023-07-29T04:17:56;5.10;;;3.00;;
71464;SDS011;59274;49.874;9.154;2023-07-29T04:20:22;5.47;;;3.10;;
71464;SDS011;59274;49.874;9.154;2023-07-29T04:22:47;7.63;;;2.97;;
71464;SDS011;59274;49.874;9.154;2023-07-29T04:25:13;6.00;;;2.93;;
71464;SDS011;59274;49.874;9.154;2023-07-29T04:27:38;8.38;;;3.15;;
71464;SDS011;59274;49.874;9.154;2023-07-29T04:30:04;5.63;;;3.00;;
71464;SDS011;59274;49.874;9.154;2023-07-29T04:32:30;5.78;;;2.83;;
71464;SDS011;59274;49.874;9.154;2023-07-29T04:34:55;6.67;;;3.43;;
71464;SDS011;59274;49.874;9.154;2023-07-29T04:37:21;5.83;;;3.23;;
71464;SDS011;59274;49.874;9.154;2023-07-29T04:39:46;6.23;;;3.10;;
71464;SDS011;59274;49.874;9.154;2023-07-29T04:42:11;5.15;;;2.50;;
71464;SDS011;59274;49.874;9.154;2023-07-29T04:44:37;6.43;;;2.93;;
71464;SDS011;59274;49.874;9.154;2023-07-29T04:47:02;6.57;;;3.20;;
71464;SDS011;59274;49.874;9.154;2023-07-29T04:49:28;6.93;;;2.95;;
71464;SDS011;59274;49.874;9.154;2023-07-29T04:51:53;6.43;;;2.85;;
71464;SDS011;59274;49.874;9.154;2023-07-29T04:54:19;7.40;;;2.93;;
71464;SDS011;59274;49.874;9.154;2023-07-29T04:56:46;6.88;;;3.53;;
71464;SDS011;59274;49.874;9.154;2023-07-29T04:59:11;7.17;;;3.63;;
71464;SDS011;59274;49.874;9.154;2023-07-29T05:01:38;8.23;;;3.58;;
71464;SDS011;59274;49.874;9.154;2023-07-29T05:04:07;7.60;;;3.60;;
71464;SDS011;59274;49.874;9.154;2023-07-29T05:06:32;8.60;;;3.83;;
71464;SDS011;59274;49.874;9.154;2023-07-29T05:08:58;7.68;;;3.80;;
71464;SDS011;59274;49.874;9.154;2023-07-29T05:11:23;7.23;;;3.87;;
71464;SDS011;59274;49.874;9.154;2023-07-29T05:13:50;6.93;;;3.40;;
71464;SDS011;59274;49.874;9.154;2023-07-29T05:16:16;7.67;;;3.70;;
71464;SDS011;59274;49.874;9.154;2023-07-29T05:18:41;7.00;;;3.83;;
71464;SDS011;59274;49.874;9.154;2023-07-29T05:21:06;7.15;;;3.80;;
71464;SDS011;59274;49.874;9.154;2023-07-29T05:23:33;7.50;;;3.27;;
71464;SDS011;59274;49.874;9.154;2023-07-29T05:25:58;7.03;;;3.60;;
71464;SDS011;59274;49.874;9.154;2023-07-29T05:28:24;6.53;;;3.30;;
71464;SDS011;59274;49.874;9.154;2023-07-29T05:30:49;6.30;;;3.30;;
71464;SDS011;59274;49.874;9.154;2023-07-29T05:33:15;6.63;;;3.03;;
71464;SDS011;59274;49.874;9.154;2023-07-29T05:35:40;6.20;;;3.23;;
71464;SDS011;59274;49.874;9.154;2023-07-29T05:38:06;5.32;;;2.65;;
71464;SDS011;59274;49.874;9.154;2023-07-29T05:40:33;4.20;;;2.30;;
71464;SDS011;59274;49.874;9.154;2023-07-29T05:42:58;5.63;;;2.50;;
71464;SDS011;59274;49.874;9.154;2023-07-29T05:45:24;4.50;;;2.40;;
71464;SDS011;59274;49.874;9.154;2023-07-29T05:47:49;6.45;;;2.67;;
71464;SDS011;59274;49.874;9.154;2023-07-29T05:50:15;6.00;;;2.90;;
71464;SDS011;59274;49.874;9.154;2023-07-29T05:52:41;8.63;;;3.27;;
71464;SDS011;59274;49.874;9.154;2023-07-29T05:55:06;6.13;;;3.25;;
71464;SDS011;59274;49.874;9.154;2023-07-29T05:57:32;5.30;;;3.03;;
71464;SDS011;59274;49.874;9.154;2023-07-29T05:59:57;6.47;;;2.90;;
71464;SDS011;59274;49.874;9.154;2023-07-29T06:02:23;7.40;;;3.00;;
71464;SDS011;59274;49.874;9.154;2023-07-29T06:04:48;6.35;;;3.00;;
71464;SDS011;59274;49.874;9.154;2023-07-29T06:07:14;6.27;;;2.67;;
71464;SDS011;59274;49.874;9.154;2023-07-29T06:09:39;7.00;;;2.53;;
71464;SDS011;59274;49.874;9.154;2023-07-29T06:12:05;6.20;;;2.67;;
71464;SDS011;59274;49.874;9.154;2023-07-29T06:14:31;6.30;;;3.10;;
71464;SDS011;59274;49.874;9.154;2023-07-29T06:16:56;5.28;;;2.60;;
71464;SDS011;59274;49.874;9.154;2023-07-29T06:19:21;4.77;;;2.30;;
71464;SDS011;59274;49.874;9.154;2023-07-29T06:21:47;5.47;;;2.67;;
71464;SDS011;59274;49.874;9.154;2023-07-29T06:24:13;5.03;;;2.50;;
71464;SDS011;59274;49.874;9.154;2023-07-29T06:26:38;4.90;;;2.50;;
71464;SDS011;59274;49.874;9.154;2023-07-29T06:29:04;5.30;;;2.60;;
71464;SDS011;59274;49.874;9.154;2023-07-29T06:31:30;5.80;;;2.15;;
71464;SDS011;59274;49.874;9.154;2023-07-29T06:33:57;4.65;;;2.20;;
71464;SDS011;59274;49.874;9.154;2023-07-29T06:36:23;7.30;;;2.20;;
71464;SDS011;59274;49.874;9.154;2023-07-29T06:38:48;5.40;;;2.23;;
71464;SDS011;59274;49.874;9.154;2023-07-29T06:41:13;4.57;;;2.10;;
71464;SDS011;59274;49.874;9.154;2023-07-29T06:43:39;4.72;;;2.03;;
71464;SDS011;59274;49.874;9.154;2023-07-29T06:46:04;4.83;;;2.10;;
71464;SDS011;59274;49.874;9.154;2023-07-29T06:48:30;4.60;;;2.20;;
71464;SDS011;59274;49.874;9.154;2023-07-29T06:50:55;5.00;;;2.20;;
71464;SDS011;59274;49.874;9.154;2023-07-29T06:53:25;6.20;;;2.25;;
71464;SDS011;59274;49.874;9.154;2023-07-29T06:55:51;4.20;;;2.50;;
71464;SDS011;59274;49.874;9.154;2023-07-29T06:58:16;5.67;;;2.77;;
71464;SDS011;59274;49.874;9.154;2023-07-29T07:00:42;5.43;;;2.80;;
71464;SDS011;59274;49.874;9.154;2023-07-29T07:03:07;6.40;;;2.90;;
71464;SDS011;59274;49.874;9.154;2023-07-29T07:05:32;4.97;;;2.40;;
71464;SDS011;59274;49.874;9.154;2023-07-29T07:07:58;5.30;;;2.30;;
71464;SDS011;59274;49.874;9.154;2023-07-29T07:10:23;6.00;;;2.50;;
71464;SDS011;59274;49.874;9.154;2023-07-29T07:12:49;5.03;;;2.33;;
71464;SDS011;59274;49.874;9.154;2023-07-29T07:15:14;4.33;;;2.30;;
71464;SDS011;59274;49.874;9.154;2023-07-29T07:17:39;8.15;;;2.15;;
71464;SDS011;59274;49.874;9.154;2023-07-29T07:20:05;11.27;;;2.80;;
71464;SDS011;59274;49.874;9.154;2023-07-29T07:22:32;12.48;;;2.90;;
71464;SDS011;59274;49.874;9.154;2023-07-29T07:24:57;8.57;;;3.00;;
71464;SDS011;59274;49.874;9.154;2023-07-29T07:27:22;12.70;;;2.93;;
71464;SDS011;59274;49.874;9.154;2023-07-29T07:29:48;10.38;;;2.63;;
71464;SDS011;59274;49.874;9.154;2023-07-29T07:32:13;5.22;;;2.58;;
71464;SDS011;59274;49.874;9.154;2023-07-29T07:34:39;5.07;;;2.27;;
71464;SDS011;59274;49.874;9.154;2023-07-29T07:37:04;5.57;;;2.33;;
71464;SDS011;59274;49.874;9.154;2023-07-29T07:39:33;6.88;;;2.50;;
71464;SDS011;59274;49.874;9.154;2023-07-29T07:41:58;6.67;;;2.60;;
71464;SDS011;59274;49.874;9.154;2023-07-29T07:44:23;6.93;;;2.33;;
71464;SDS011;59274;49.874;9.154;2023-07-29T07:46:51;5.93;;;2.40;;
71464;SDS011;59274;49.874;9.154;2023-07-29T07:49:17;7.13;;;2.55;;
71464;SDS011;59274;49.874;9.154;2023-07-29T07:51:43;7.13;;;3.10;;
71464;SDS011;59274;49.874;9.154;2023-07-29T07:54:09;6.50;;;2.63;;
71464;SDS011;59274;49.874;9.154;2023-07-29T07:56:34;8.47;;;2.97;;
71464;SDS011;59274;49.874;9.154;2023-07-29T07:59:00;5.88;;;2.70;;
71464;SDS011;59274;49.874;9.154;2023-07-29T08:01:25;7.07;;;3.20;;
71464;SDS011;59274;49.874;9.154;2023-07-29T08:03:50;7.47;;;3.00;;
71464;SDS011;59274;49.874;9.154;2023-07-29T08:06:16;6.13;;;2.93;;
71464;SDS011;59274;49.874;9.154;2023-07-29T08:08:41;6.43;;;1.70;;
71464;SDS011;59274;49.874;9.154;2023-07-29T08:11:07;3.22;;;1.00;;
71464;SDS011;59274;49.874;9.154;2023-07-29T08:13:33;3.60;;;0.90;;
71464;SDS011;59274;49.874;9.154;2023-07-29T08:15:58;2.65;;;1.00;;
71464;SDS011;59274;49.874;9.154;2023-07-29T08:18:24;2.53;;;1.00;;
71464;SDS011;59274;49.874;9.154;2023-07-29T08:20:56;4.17;;;1.30;;
71464;SDS011;59274;49.874;9.154;2023-07-29T08:23:35;2.03;;;1.15;;
71464;SDS011;59274;49.874;9.154;2023-07-29T08:26:02;4.25;;;1.20;;
71464;SDS011;59274;49.874;9.154;2023-07-29T08:28:37;3.08;;;1.13;;
71464;SDS011;59274;49.874;9.154;2023-07-29T08:31:04;5.00;;;1.00;;
71464;SDS011;59274;49.874;9.154;2023-07-29T08:33:30;3.20;;;1.00;;
71464;SDS011;59274;49.874;9.154;2023-07-29T08:35:56;2.58;;;1.10;;
71464;SDS011;59274;49.874;9.154;2023-07-29T08:38:22;4.70;;;1.20;;
71464;SDS011;59274;49.874;9.154;2023-07-29T08:43:48;3.58;;;1.40;;
71464;SDS011;59274;49.874;9.154;2023-07-29T08:46:19;6.10;;;1.70;;
71464;SDS011;59274;49.874;9.154;2023-07-29T08:48:45;8.70;;;1.40;;
71464;SDS011;59274;49.874;9.154;2023-07-29T08:51:11;3.55;;;1.35;;
71464;SDS011;59274;49.874;9.154;2023-07-29T08:53:37;2.72;;;1.10;;
71464;SDS011;59274;49.874;9.154;2023-07-29T08:56:04;3.53;;;1.30;;
71464;SDS011;59274;49.874;9.154;2023-07-29T08:58:30;3.85;;;1.50;;
71464;SDS011;59274;49.874;9.154;2023-07-29T09:00:56;3.15;;;1.50;;
71464;SDS011;59274;49.874;9.154;2023-07-29T09:03:22;3.63;;;1.65;;
71464;SDS011;59274;49.874;9.154;2023-07-29T09:05:47;3.22;;;1.27;;
71464;SDS011;59274;49.874;9.154;2023-07-29T09:08:14;2.27;;;1.00;;
71464;SDS011;59274;49.874;9.154;2023-07-29T09:10:39;2.50;;;1.25;;
71464;SDS011;59274;49.874;9.154;2023-07-29T09:13:06;3.28;;;1.20;;
71464;SDS011;59274;49.874;9.154;2023-07-29T09:15:33;3.78;;;1.33;;
71464;SDS011;59274;49.874;9.154;2023-07-29T09:18:08;3.30;;;1.58;;
71464;SDS011;59274;49.874;9.154;2023-07-29T09:20:35;2.60;;;1.30;;
71464;SDS011;59274;49.874;9.154;2023-07-29T09:23:00;3.53;;;1.33;;
71464;SDS011;59274;49.874;9.154;2023-07-29T09:25:27;3.53;;;1.30;;
71464;SDS011;59274;49.874;9.154;2023-07-29T09:27:58;2.20;;;1.13;;
71464;SDS011;59274;49.874;9.154;2023-07-29T09:30:25;2.00;;;1.05;;
71464;SDS011;59274;49.874;9.154;2023-07-29T09:32:57;3.07;;;1.33;;
71464;SDS011;59274;49.874;9.154;2023-07-29T09:35:23;3.55;;;1.50;;
71464;SDS011;59274;49.874;9.154;2023-07-29T09:37:51;5.53;;;1.90;;
71464;SDS011;59274;49.874;9.154;2023-07-29T09:40:17;4.73;;;1.80;;
71464;SDS011;59274;49.874;9.154;2023-07-29T09:42:52;5.95;;;1.60;;
71464;SDS011;59274;49.874;9.154;2023-07-29T09:45:23;4.43;;;1.75;;
71464;SDS011;59274;49.874;9.154;2023-07-29T09:47:50;4.40;;;1.90;;
71464;SDS011;59274;49.874;9.154;2023-07-29T09:50:16;3.58;;;1.75;;
71464;SDS011;59274;49.874;9.154;2023-07-29T09:52:42;4.80;;;1.90;;
71464;SDS011;59274;49.874;9.154;2023-07-29T09:55:12;4.20;;;1.88;;
71464;SDS011;59274;49.874;9.154;2023-07-29T09:57:39;5.20;;;2.20;;
71464;SDS011;59274;49.874;9.154;2023-07-29T10:00:05;4.18;;;2.08;;
71464;SDS011;59274;49.874;9.154;2023-07-29T10:02:36;4.88;;;2.20;;
71464;SDS011;59274;49.874;9.154;2023-07-29T10:05:09;4.28;;;1.90;;
71464;SDS011;59274;49.874;9.154;2023-07-29T10:07:38;4.63;;;1.92;;
71464;SDS011;59274;49.874;9.154;2023-07-29T10:10:05;5.10;;;1.83;;
71464;SDS011;59274;49.874;9.154;2023-07-29T10:12:32;7.03;;;1.85;;
71464;SDS011;59274;49.874;9.154;2023-07-29T10:15:02;4.90;;;1.95;;
71464;SDS011;59274;49.874;9.154;2023-07-29T10:17:30;4.30;;;1.90;;
71464;SDS011;59274;49.874;9.154;2023-07-29T10:19:56;8.27;;;1.80;;
71464;SDS011;59274;49.874;9.154;2023-07-29T10:22:25;3.88;;;1.77;;
71464;SDS011;59274;49.874;9.154;2023-07-29T10:24:54;3.70;;;1.70;;
71464;SDS011;59274;49.874;9.154;2023-07-29T10:27:24;3.35;;;1.60;;
71464;SDS011;59274;49.874;9.154;2023-07-29T10:29:52;4.53;;;1.80;;
71464;SDS011;59274;49.874;9.154;2023-07-29T10:32:21;3.15;;;1.80;;
71464;SDS011;59274;49.874;9.154;2023-07-29T10:34:50;2.88;;;1.65;;
71464;SDS011;59274;49.874;9.154;2023-07-29T10:37:16;4.80;;;2.20;;
71464;SDS011;59274;49.874;9.154;2023-07-29T10:39:45;3.47;;;1.80;;
71464;SDS011;59274;49.874;9.154;2023-07-29T10:42:18;3.90;;;1.77;;
71464;SDS011;59274;49.874;9.154;2023-07-29T10:49:56;3.25;;;1.88;;
71464;SDS011;59274;49.874;9.154;2023-07-29T10:55:00;2.42;;;1.55;;
71464;SDS011;59274;49.874;9.154;2023-07-29T10:57:36;3.17;;;1.50;;
71464;SDS011;59274;49.874;9.154;2023-07-29T11:00:05;2.90;;;1.50;;
71464;SDS011;59274;49.874;9.154;2023-07-29T11:02:34;4.38;;;1.70;;
71464;SDS011;59274;49.874;9.154;2023-07-29T11:05:08;4.53;;;1.70;;
71464;SDS011;59274;49.874;9.154;2023-07-29T11:07:45;3.10;;;1.70;;
71464;SDS011;59274;49.874;9.154;2023-07-29T11:10:12;3.92;;;1.90;;
71464;SDS011;59274;49.874;9.154;2023-07-29T11:17:50;3.88;;;1.58;;
71464;SDS011;59274;49.874;9.154;2023-07-29T11:20:16;4.20;;;1.90;;
71464;SDS011;59274;49.874;9.154;2023-07-29T11:22:43;5.25;;;2.00;;
71464;SDS011;59274;49.874;9.154;2023-07-29T11:25:11;4.03;;;1.80;;
71464;SDS011;59274;49.874;9.154;2023-07-29T11:27:38;4.28;;;1.67;;
71464;SDS011;59274;49.874;9.154;2023-07-29T11:30:05;3.63;;;2.00;;
71464;SDS011;59274;49.874;9.154;2023-07-29T11:32:33;4.63;;;2.05;;
71464;SDS011;59274;49.874;9.154;2023-07-29T11:35:07;4.35;;;2.15;;
71464;SDS011;59274;49.874;9.154;2023-07-29T11:37:35;3.50;;;2.10;;
71464;SDS011;59274;49.874;9.154;2023-07-29T11:40:01;4.13;;;2.08;;
71464;SDS011;59274;49.874;9.154;2023-07-29T11:42:27;3.70;;;2.00;;
71464;SDS011;59274;49.874;9.154;2023-07-29T11:44:56;6.63;;;2.30;;
71464;SDS011;59274;49.874;9.154;2023-07-29T11:47:22;4.38;;;2.10;;
71464;SDS011;59274;49.874;9.154;2023-07-29T11:49:47;3.35;;;2.00;;
71464;SDS011;59274;49.874;9.154;2023-07-29T11:52:13;3.30;;;2.10;;
71464;SDS011;59274;49.874;9.154;2023-07-29T11:54:39;4.60;;;2.13;;
71464;SDS011;59274;49.874;9.154;2023-07-29T11:57:07;3.78;;;2.10;;
71464;SDS011;59274;49.874;9.154;2023-07-29T11:59:34;2.88;;;1.80;;
71464;SDS011;59274;49.874;9.154;2023-07-29T12:02:01;4.10;;;2.30;;
71464;SDS011;59274;49.874;9.154;2023-07-29T12:04:30;4.17;;;1.90;;
71464;SDS011;59274;49.874;9.154;2023-07-29T12:06:56;5.38;;;1.80;;
71464;SDS011;59274;49.874;9.154;2023-07-29T12:09:22;3.20;;;1.90;;
71464;SDS011;59274;49.874;9.154;2023-07-29T12:11:48;4.50;;;2.07;;
71464;SDS011;59274;49.874;9.154;2023-07-29T12:14:13;4.03;;;2.08;;
71464;SDS011;59274;49.874;9.154;2023-07-29T12:16:44;4.68;;;2.22;;
71464;SDS011;59274;49.874;9.154;2023-07-29T12:19:12;3.23;;;2.00;;
71464;SDS011;59274;49.874;9.154;2023-07-29T12:21:40;4.03;;;2.00;;
71464;SDS011;59274;49.874;9.154;2023-07-29T12:24:06;4.32;;;1.90;;
71464;SDS011;59274;49.874;9.154;2023-07-29T12:26:32;4.60;;;2.00;;
71464;SDS011;59274;49.874;9.154;2023-07-29T12:28:58;6.40;;;2.42;;
71464;SDS011;59274;49.874;9.154;2023-07-29T12:31:33;4.50;;;2.00;;
71464;SDS011;59274;49.874;9.154;2023-07-29T12:34:02;4.35;;;2.00;;
71464;SDS011;59274;49.874;9.154;2023-07-29T12:36:43;4.33;;;1.83;;
71464;SDS011;59274;49.874;9.154;2023-07-29T12:39:20;3.08;;;1.70;;
71464;SDS011;59274;49.874;9.154;2023-07-29T12:41:48;2.85;;;1.90;;
71464;SDS011;59274;49.874;9.154;2023-07-29T12:44:14;3.35;;;1.77;;
71464;SDS011;59274;49.874;9.154;2023-07-29T12:46:40;3.97;;;1.77;;
71464;SDS011;59274;49.874;9.154;2023-07-29T12:49:06;3.67;;;1.80;;
71464;SDS011;59274;49.874;9.154;2023-07-29T12:51:32;2.93;;;1.90;;
71464;SDS011;59274;49.874;9.154;2023-07-29T12:53:57;3.10;;;1.88;;
71464;SDS011;59274;49.874;9.154;2023-07-29T12:56:23;2.90;;;1.60;;
71464;SDS011;59274;49.874;9.154;2023-07-29T12:58:48;4.20;;;1.70;;
71464;SDS011;59274;49.874;9.154;2023-07-29T13:01:14;4.20;;;1.80;;
71464;SDS011;59274;49.874;9.154;2023-07-29T13:03:43;4.35;;;2.15;;
71464;SDS011;59274;49.874;9.154;2023-07-29T13:06:11;3.40;;;1.90;;
71464;SDS011;59274;49.874;9.154;2023-07-29T13:08:37;3.45;;;2.00;;
71464;SDS011;59274;49.874;9.154;2023-07-29T13:11:02;2.97;;;1.93;;
71464;SDS011;59274;49.874;9.154;2023-07-29T13:13:28;3.75;;;1.90;;
71464;SDS011;59274;49.874;9.154;2023-07-29T13:15:54;3.40;;;1.83;;
71464;SDS011;59274;49.874;9.154;2023-07-29T13:18:21;4.23;;;1.97;;
71464;SDS011;59274;49.874;9.154;2023-07-29T13:20:46;2.78;;;1.85;;
71464;SDS011;59274;49.874;9.154;2023-07-29T13:23:12;3.30;;;1.60;;
71464;SDS011;59274;49.874;9.154;2023-07-29T13:25:37;4.75;;;2.00;;
71464;SDS011;59274;49.874;9.154;2023-07-29T13:28:03;4.53;;;2.10;;
71464;SDS011;59274;49.874;9.154;2023-07-29T13:30:28;3.47;;;1.80;;
71464;SDS011;59274;49.874;9.154;2023-07-29T13:32:54;4.22;;;2.10;;
71464;SDS011;59274;49.874;9.154;2023-07-29T13:35:20;3.83;;;1.80;;
71464;SDS011;59274;49.874;9.154;2023-07-29T13:37:45;3.20;;;1.70;;
71464;SDS011;59274;49.874;9.154;2023-07-29T13:40:11;4.88;;;1.90;;
71464;SDS011;59274;49.874;9.154;2023-07-29T13:42:36;4.40;;;1.77;;
71464;SDS011;59274;49.874;9.154;2023-07-29T13:45:02;5.27;;;2.13;;
71464;SDS011;59274;49.874;9.154;2023-07-29T13:47:27;3.10;;;1.80;;
71464;SDS011;59274;49.874;9.154;2023-07-29T13:49:53;2.80;;;2.07;;
71464;SDS011;59274;49.874;9.154;2023-07-29T13:52:18;3.60;;;2.10;;
71464;SDS011;59274;49.874;9.154;2023-07-29T13:54:44;2.57;;;1.93;;
71464;SDS011;59274;49.874;9.154;2023-07-29T13:57:09;4.50;;;2.00;;
71464;SDS011;59274;49.874;9.154;2023-07-29T13:59:35;3.83;;;2.00;;
71464;SDS011;59274;49.874;9.154;2023-07-29T14:02:03;3.47;;;1.92;;
71464;SDS011;59274;49.874;9.154;2023-07-29T14:04:30;4.35;;;2.05;;
71464;SDS011;59274;49.874;9.154;2023-07-29T14:06:55;2.73;;;2.03;;
71464;SDS011;59274;49.874;9.154;2023-07-29T14:09:20;2.93;;;1.93;;
71464;SDS011;59274;49.874;9.154;2023-07-29T14:11:46;3.25;;;2.20;;
71464;SDS011;59274;49.874;9.154;2023-07-29T14:14:11;3.43;;;2.00;;
71464;SDS011;59274;49.874;9.154;2023-07-29T14:16:37;2.90;;;2.13;;
71464;SDS011;59274;49.874;9.154;2023-07-29T14:19:02;4.33;;;2.10;;
71464;SDS011;59274;49.874;9.154;2023-07-29T14:21:28;3.35;;;2.10;;
71464;SDS011;59274;49.874;9.154;2023-07-29T14:23:53;3.50;;;2.10;;
71464;SDS011;59274;49.874;9.154;2023-07-29T14:26:19;3.47;;;2.13;;
71464;SDS011;59274;49.874;9.154;2023-07-29T14:28:44;4.20;;;2.40;;
71464;SDS011;59274;49.874;9.154;2023-07-29T14:31:09;5.05;;;2.35;;
71464;SDS011;59274;49.874;9.154;2023-07-29T14:33:35;3.50;;;2.20;;
71464;SDS011;59274;49.874;9.154;2023-07-29T14:36:00;3.40;;;2.30;;
71464;SDS011;59274;49.874;9.154;2023-07-29T14:38:28;2.83;;;2.20;;
71464;SDS011;59274;49.874;9.154;2023-07-29T14:40:54;3.70;;;2.30;;
71464;SDS011;59274;49.874;9.154;2023-07-29T14:43:21;3.47;;;2.30;;
71464;SDS011;59274;49.874;9.154;2023-07-29T14:45:48;3.93;;;1.90;;
71464;SDS011;59274;49.874;9.154;2023-07-29T14:48:14;4.05;;;2.25;;
71464;SDS011;59274;49.874;9.154;2023-07-29T14:50:39;3.17;;;2.40;;
71464;SDS011;59274;49.874;9.154;2023-07-29T14:53:05;3.60;;;2.42;;
71464;SDS011;59274;49.874;9.154;2023-07-29T14:55:30;3.70;;;1.60;;
71464;SDS011;59274;49.874;9.154;2023-07-29T14:57:56;3.60;;;2.30;;
71464;SDS011;59274;49.874;9.154;2023-07-29T15:00:21;3.57;;;2.17;;
71464;SDS011;59274;49.874;9.154;2023-07-29T15:02:47;3.08;;;2.28;;
71464;SDS011;59274;49.874;9.154;2023-07-29T15:05:12;3.97;;;2.10;;